Time;durP1;ratioP1;P1;durP2;ratioP2;P2;SDS_P1;SDS_P2;PMS_P1;PMS_P2;Temp;Humidity;BMP_temperature;BMP_pressure;BME280_temperature;BME280_humidity;BME280_pressure;Samples;Min_cycle;Max_cycle;Signal;HPM_P1;HPM_P2
2021/01/17 00:00:49;;;;;;;14.82;10.57;;;20.30;42.00;;;;;;5093232;28;20020;-49
2021/01/17 00:03:16;;;;;;;14.93;10.80;;;20.30;41.50;;;;;;5092898;28;20012;-49
2021/01/17 00:05:43;;;;;;;14.32;10.23;;;20.30;41.50;;;;;;5093386;28;20091;-49
2021/01/17 00:08:10;;;;;;;14.88;10.10;;;20.30;41.50;;;;;;5093200;28;20032;-48
2021/01/17 00:10:37;;;;;;;11.63;9.50;;;20.20;41.60;;;;;;5092961;28;20107;-49
2021/01/17 00:13:04;;;;;;;16.25;9.80;;;20.20;41.60;;;;;;5092663;28;20028;-50
2021/01/17 00:15:30;;;;;;;10.88;8.50;;;20.20;41.60;;;;;;5094294;28;20427;-50
2021/01/17 00:17:57;;;;;;;11.93;9.45;;;20.10;41.60;;;;;;5096830;28;20077;-50
2021/01/17 00:20:24;;;;;;;15.15;10.27;;;20.10;41.70;;;;;;5097084;28;20032;-50
2021/01/17 00:22:54;;;;;;;10.82;8.68;;;20.10;41.60;;;;;;5096720;28;20029;-50
2021/01/17 00:25:21;;;;;;;12.90;9.77;;;20.10;41.70;;;;;;5097387;28;20351;-50
2021/01/17 00:27:52;;;;;;;12.90;9.27;;;20.10;41.70;;;;;;5096890;28;20103;-50
2021/01/17 00:30:22;;;;;;;12.65;9.80;;;20.00;41.70;;;;;;5097198;28;20032;-49
2021/01/17 00:32:49;;;;;;;10.98;9.18;;;20.00;41.70;;;;;;5096304;28;20463;-50
2021/01/17 00:35:16;;;;;;;11.35;9.35;;;20.00;41.70;;;;;;5096947;28;20031;-49
2021/01/17 00:37:42;;;;;;;11.35;8.82;;;20.00;41.70;;;;;;5096719;28;20028;-49
2021/01/17 00:40:09;;;;;;;15.32;9.50;;;20.00;41.70;;;;;;5096534;28;20032;-50
2021/01/17 00:42:35;;;;;;;11.73;9.52;;;20.00;41.70;;;;;;5096738;28;20115;-50
2021/01/17 00:45:01;;;;;;;14.23;9.40;;;20.00;41.80;;;;;;5096276;28;20016;-50
2021/01/17 00:47:27;;;;;;;16.70;10.65;;;19.90;41.80;;;;;;5095538;28;20032;-49
2021/01/17 00:49:53;;;;;;;11.68;9.23;;;19.90;41.80;;;;;;5096636;28;20028;-49
2021/01/17 00:52:21;;;;;;;12.68;10.15;;;19.90;41.70;;;;;;5096256;28;20028;-49
2021/01/17 00:54:49;;;;;;;15.30;10.20;;;19.90;41.80;;;;;;5095110;28;20025;-50
2021/01/17 00:57:16;;;;;;;12.57;9.18;;;19.90;41.80;;;;;;5094734;28;20028;-50
2021/01/17 00:59:44;;;;;;;14.32;10.05;;;19.80;41.70;;;;;;5095158;28;20040;-50
2021/01/17 01:02:10;;;;;;;11.00;9.18;;;19.80;41.70;;;;;;5094997;28;20107;-50
2021/01/17 01:04:36;;;;;;;13.02;9.57;;;19.80;41.70;;;;;;5095994;28;20446;-49
2021/01/17 01:07:03;;;;;;;10.93;8.98;;;19.80;41.80;;;;;;5096303;28;20035;-50
2021/01/17 01:09:29;;;;;;;14.45;8.60;;;19.80;41.80;;;;;;5096307;28;20123;-50
2021/01/17 01:11:55;;;;;;;10.32;8.35;;;19.80;41.80;;;;;;5094887;28;20489;-49
2021/01/17 01:14:21;;;;;;;11.65;9.05;;;19.70;41.80;;;;;;5095650;28;20103;-50
2021/01/17 01:16:52;;;;;;;14.05;8.77;;;19.70;41.80;;;;;;5095921;28;20229;-50
2021/01/17 01:19:18;;;;;;;;;;;19.70;41.80;;;;;;5096217;28;20032;-49
2021/01/17 01:21:44;;;;;;;13.50;8.77;;;19.60;41.60;;;;;;5096119;28;19912;-50
2021/01/17 01:24:11;;;;;;;11.27;8.80;;;19.70;41.70;;;;;;5095720;28;20166;-50
2021/01/17 01:26:40;;;;;;;13.32;8.65;;;19.70;41.70;;;;;;5093918;28;20028;-50
2021/01/17 01:29:07;;;;;;;10.75;8.00;;;19.60;41.70;;;;;;5094753;28;20032;-50
2021/01/17 01:31:34;;;;;;;8.85;7.88;;;19.60;41.80;;;;;;5095653;28;20024;-50
2021/01/17 01:34:00;;;;;;;13.20;8.13;;;19.50;41.80;;;;;;5095699;28;20051;-50
2021/01/17 01:36:31;;;;;;;9.82;8.50;;;19.50;41.90;;;;;;5095688;28;20454;-50
2021/01/17 01:38:57;;;;;;;12.52;8.57;;;19.50;41.90;;;;;;5095634;28;20095;-50
2021/01/17 01:41:31;;;;;;;9.77;8.57;;;19.50;41.90;;;;;;5095629;28;20023;-50
2021/01/17 01:43:58;;;;;;;10.48;7.80;;;19.40;41.90;;;;;;5095737;28;20467;-49
2021/01/17 01:46:26;;;;;;;10.75;9.05;;;19.40;41.90;;;;;;5095462;28;20020;-50
2021/01/17 01:48:54;;;;;;;10.63;7.50;;;19.40;41.90;;;;;;5095593;28;20119;-50
2021/01/17 01:51:22;;;;;;;12.48;7.93;;;19.40;41.90;;;;;;5095503;28;20377;-50
2021/01/17 01:53:51;;;;;;;10.38;8.43;;;19.40;41.80;;;;;;5095464;28;20358;-50
2021/01/17 01:56:17;;;;;;;11.45;7.28;;;19.40;41.90;;;;;;5094965;28;20028;-50
2021/01/17 01:58:43;;;;;;;8.68;7.22;;;19.40;41.80;;;;;;5095311;28;20023;-49
2021/01/17 02:01:10;;;;;;;11.25;7.32;;;19.40;41.80;;;;;;5095055;28;20031;-49
2021/01/17 02:03:36;;;;;;;12.75;7.28;;;19.40;41.80;;;;;;5094989;28;20457;-50
2021/01/17 02:06:10;;;;;;;10.55;7.35;;;19.30;41.80;;;;;;5094717;28;20048;-50
2021/01/17 02:09:10;;;;;;;9.18;7.05;;;19.30;41.80;;;;;;5094843;28;20979;-50
2021/01/17 02:12:15;;;;;;;10.15;6.80;;;19.30;41.80;;;;;;5094577;28;20028;-50
2021/01/17 02:14:53;;;;;;;11.13;7.90;;;19.30;41.70;;;;;;5093910;28;20040;-50
2021/01/17 02:17:21;;;;;;;8.10;6.38;;;19.30;41.80;;;;;;5093297;28;20032;-49
2021/01/17 02:20:07;;;;;;;10.18;7.93;;;19.30;41.70;;;;;;5094657;28;20020;-47
2021/01/17 02:22:59;;;;;;;9.90;6.78;;;19.30;41.70;;;;;;5094529;28;20024;-49
2021/01/17 02:25:27;;;;;;;11.15;7.38;;;19.20;41.70;;;;;;5091764;28;20085;-49
2021/01/17 02:27:55;;;;;;;12.25;7.57;;;19.20;41.70;;;;;;5094701;28;20105;-49
2021/01/17 02:30:23;;;;;;;9.18;7.13;;;19.20;41.80;;;;;;5093242;28;20085;-49
2021/01/17 02:32:54;;;;;;;13.15;8.10;;;19.20;41.80;;;;;;5092318;28;20076;-49
2021/01/17 02:35:24;;;;;;;7.70;6.68;;;19.20;41.80;;;;;;5093376;28;20028;-49
2021/01/17 02:38:07;;;;;;;9.98;7.00;;;19.20;41.80;;;;;;5094476;28;20024;-49
2021/01/17 02:40:41;;;;;;;11.73;7.40;;;19.20;41.80;;;;;;5092853;28;20025;-49
2021/01/17 02:43:07;;;;;;;10.52;6.90;;;19.10;41.70;;;;;;5094479;28;20038;-49
2021/01/17 02:45:34;;;;;;;10.20;7.18;;;19.10;41.70;;;;;;5094027;28;20039;-49
2021/01/17 02:48:01;;;;;;;11.45;7.88;;;19.20;41.70;;;;;;5094693;28;20472;-49
2021/01/17 02:50:27;;;;;;;11.55;7.95;;;19.10;41.70;;;;;;5092675;28;20086;-49
2021/01/17 02:53:08;;;;;;;9.48;7.78;;;19.10;41.70;;;;;;5093015;28;20370;-49
2021/01/17 02:55:38;;;;;;;10.95;8.05;;;19.10;41.70;;;;;;5092541;28;20089;-49
2021/01/17 02:58:08;;;;;;;13.25;8.70;;;19.10;41.70;;;;;;5094106;28;20028;-49
2021/01/17 03:00:36;;;;;;;13.30;8.73;;;19.10;41.60;;;;;;5093891;28;20470;-49
2021/01/17 03:03:06;;;;;;;8.65;7.47;;;19.10;41.70;;;;;;5093976;28;20027;-49
2021/01/17 03:05:33;;;;;;;10.00;6.87;;;19.00;41.60;;;;;;5093877;28;20024;-49
2021/01/17 03:08:03;;;;;;;10.82;8.00;;;19.00;41.70;;;;;;5091923;28;20471;-54
2021/01/17 03:10:30;;;;;;;12.32;7.97;;;18.90;41.70;;;;;;5093133;28;20028;-54
2021/01/17 03:12:59;;;;;;;8.80;7.57;;;18.90;41.70;;;;;;5093300;28;20028;-54
2021/01/17 03:15:26;;;;;;;11.77;7.80;;;18.90;41.70;;;;;;5091961;28;20036;-54
2021/01/17 03:17:52;;;;;;;10.90;7.07;;;18.90;41.80;;;;;;5093279;28;20035;-54
2021/01/17 03:20:18;;;;;;;7.93;6.82;;;18.80;41.80;;;;;;5093525;28;20362;-54
2021/01/17 03:22:44;;;;;;;11.27;6.97;;;18.80;41.80;;;;;;5093730;28;20028;-54
2021/01/17 03:25:10;;;;;;;8.90;7.00;;;18.80;41.90;;;;;;5093719;28;20024;-53
2021/01/17 03:27:36;;;;;;;10.73;6.75;;;18.70;41.90;;;;;;5093687;28;20050;-53
2021/01/17 03:30:03;;;;;;;8.57;6.35;;;18.70;41.90;;;;;;5093649;28;20473;-53
2021/01/17 03:32:29;;;;;;;9.73;6.07;;;18.70;41.90;;;;;;5093134;28;20063;-53
2021/01/17 03:34:55;;;;;;;8.45;5.95;;;18.70;41.90;;;;;;5093492;28;20032;-53
2021/01/17 03:37:21;;;;;;;9.75;6.75;;;18.60;41.90;;;;;;5093523;28;20553;-53
2021/01/17 03:39:47;;;;;;;9.48;6.30;;;18.60;42.00;;;;;;5093194;28;20032;-53
2021/01/17 03:42:14;;;;;;;9.27;6.88;;;18.60;42.00;;;;;;5093192;28;20050;-53
2021/01/17 03:44:40;;;;;;;10.73;5.95;;;18.60;42.00;;;;;;5093071;28;20095;-53
2021/01/17 03:47:07;;;;;;;7.57;5.75;;;18.60;42.00;;;;;;5093342;28;20028;-53
2021/01/17 03:49:33;;;;;;;8.48;6.03;;;18.60;42.00;;;;;;5091783;28;20052;-53
2021/01/17 03:51:59;;;;;;;8.88;5.95;;;18.60;42.00;;;;;;5091567;28;20036;-53
2021/01/17 03:54:26;;;;;;;9.70;6.28;;;18.60;42.10;;;;;;5093071;28;20374;-53
2021/01/17 03:56:53;;;;;;;7.57;6.40;;;18.50;42.10;;;;;;5093125;28;20024;-53
2021/01/17 03:59:19;;;;;;;9.60;6.13;;;18.50;42.10;;;;;;5091742;28;20413;-54
2021/01/17 04:01:45;;;;;;;5.88;5.25;;;18.50;42.00;;;;;;5093122;28;20442;-53
2021/01/17 04:04:11;;;;;;;8.18;5.50;;;18.50;42.10;;;;;;5093013;28;20035;-53
2021/01/17 04:06:38;;;;;;;8.85;6.22;;;18.50;42.10;;;;;;5091896;28;20024;-53
2021/01/17 04:09:07;;;;;;;7.50;5.32;;;18.50;42.10;;;;;;5092786;28;20032;-53
2021/01/17 04:11:34;;;;;;;8.48;5.57;;;18.50;42.20;;;;;;5091725;28;20036;-54
2021/01/17 04:14:00;;;;;;;7.25;5.32;;;18.50;42.20;;;;;;5092707;28;20070;-53
2021/01/17 04:16:26;;;;;;;7.38;5.10;;;18.50;42.20;;;;;;5075043;28;20059;-53
2021/01/17 04:18:52;;;;;;;8.65;5.65;;;18.50;42.20;;;;;;5092803;28;20044;-53
2021/01/17 04:21:18;;;;;;;9.40;5.65;;;18.50;42.20;;;;;;5092144;28;20028;-53
2021/01/17 04:23:44;;;;;;;7.65;5.13;;;18.40;42.10;;;;;;5092790;28;20020;-53
2021/01/17 04:26:10;;;;;;;7.35;5.72;;;18.40;42.20;;;;;;5092102;28;20024;-53
2021/01/17 04:28:36;;;;;;;8.35;5.45;;;18.40;42.20;;;;;;5091546;28;20039;-53
2021/01/17 04:31:03;;;;;;;8.98;5.40;;;18.40;42.20;;;;;;5092054;28;20026;-53
2021/01/17 04:33:29;;;;;;;5.93;4.35;;;18.40;42.30;;;;;;5092421;28;20048;-53
2021/01/17 04:35:55;;;;;;;8.85;5.00;;;18.40;42.20;;;;;;5093070;28;20490;-53
2021/01/17 04:38:21;;;;;;;6.93;5.30;;;18.40;42.20;;;;;;5092307;28;20029;-53
2021/01/17 04:40:47;;;;;;;9.13;5.70;;;18.40;42.30;;;;;;5091998;28;20515;-53
2021/01/17 04:43:30;;;;;;;6.47;4.93;;;18.30;42.30;;;;;;5074440;28;20032;-53
2021/01/17 04:46:00;;;;;;;5.78;4.63;;;18.30;42.30;;;;;;5071701;28;20035;-53
2021/01/17 04:48:28;;;;;;;6.82;4.47;;;18.30;42.30;;;;;;5071385;28;20063;-53
2021/01/17 04:51:03;;;;;;;7.28;5.10;;;18.30;42.30;;;;;;5071244;28;20029;-53
2021/01/17 04:53:31;;;;;;;5.32;4.40;;;18.30;42.30;;;;;;5071293;28;20086;-54
2021/01/17 04:56:26;;;;;;;5.80;4.43;;;18.30;42.40;;;;;;5091735;28;20043;-54
2021/01/17 04:59:11;;;;;;;8.15;4.85;;;18.20;42.30;;;;;;5091215;28;20024;-54
2021/01/17 05:01:46;;;;;;;7.55;5.53;;;18.30;42.40;;;;;;5089966;28;20021;-54
2021/01/17 05:04:19;;;;;;;5.78;4.68;;;18.20;42.30;;;;;;5110198;28;20047;-54
2021/01/17 05:06:48;;;;;;;6.70;4.38;;;18.20;42.40;;;;;;5095140;28;20084;-55
2021/01/17 05:09:21;;;;;;;7.13;4.90;;;18.20;42.40;;;;;;5095287;28;20024;-56
2021/01/17 05:11:52;;;;;;;7.75;4.75;;;18.20;42.40;;;;;;5095274;28;20028;-54
2021/01/17 05:14:54;;;;;;;8.30;4.47;;;18.20;42.40;;;;;;5095235;28;20020;-53
2021/01/17 05:17:24;;;;;;;7.22;4.43;;;18.20;42.40;;;;;;5090540;28;20036;-54
2021/01/17 05:19:51;;;;;;;4.78;4.18;;;18.20;42.30;;;;;;5095768;28;20029;-54
2021/01/17 05:22:20;;;;;;;6.35;4.10;;;18.20;42.30;;;;;;5095530;28;20366;-53
2021/01/17 05:24:51;;;;;;;5.13;4.47;;;18.20;42.50;;;;;;5095400;28;20020;-53
2021/01/17 05:27:17;;;;;;;6.50;4.80;;;18.20;42.50;;;;;;5094000;28;20028;-53
2021/01/17 05:29:43;;;;;;;7.25;4.38;;;18.20;42.50;;;;;;5095073;28;20397;-54
2021/01/17 05:32:09;;;;;;;7.20;4.82;;;18.20;42.50;;;;;;5093889;28;20473;-53
2021/01/17 05:34:35;;;;;;;7.55;4.85;;;18.10;42.50;;;;;;5094578;28;20047;-53
2021/01/17 05:37:04;;;;;;;6.40;4.65;;;18.10;42.50;;;;;;5094072;28;20032;-53
2021/01/17 05:39:51;;;;;;;9.90;4.47;;;18.10;42.60;;;;;;5094131;28;20086;-54
2021/01/17 05:42:17;;;;;;;6.20;4.80;;;18.10;42.60;;;;;;5069762;28;20036;-53
2021/01/17 05:44:43;;;;;;;7.95;4.43;;;18.10;42.50;;;;;;5074786;28;20029;-53
2021/01/17 05:47:09;;;;;;;7.93;4.68;;;18.10;42.50;;;;;;5093855;28;20169;-53
2021/01/17 05:49:35;;;;;;;7.28;4.85;;;18.10;42.40;;;;;;5094477;28;20085;-53
2021/01/17 05:52:15;;;;;;;7.57;5.03;;;18.00;42.40;;;;;;5094324;28;20031;-53
2021/01/17 05:54:43;;;;;;;6.55;4.07;;;18.00;42.30;;;;;;5093957;28;20024;-53
2021/01/17 05:57:22;;;;;;;6.70;4.07;;;18.00;42.30;;;;;;5073328;28;20029;-53
2021/01/17 05:59:49;;;;;;;8.93;4.60;;;18.00;42.20;;;;;;5078217;28;20031;-54
2021/01/17 06:02:20;;;;;;;8.60;4.47;;;18.00;42.20;;;;;;5094445;28;20077;-53
2021/01/17 06:05:00;;;;;;;7.63;4.82;;;17.90;42.20;;;;;;5092908;28;20050;-54
2021/01/17 06:07:29;;;;;;;4.63;3.92;;;17.90;42.20;;;;;;5094282;28;20042;-54
2021/01/17 06:10:05;;;;;;;6.10;3.97;;;17.90;42.20;;;;;;5094169;28;20028;-54
2021/01/17 06:12:36;;;;;;;6.75;4.57;;;17.90;42.20;;;;;;5093074;28;20055;-53
2021/01/17 06:15:08;;;;;;;9.75;5.38;;;17.80;42.20;;;;;;5092928;28;20550;-53
2021/01/17 06:17:37;;;;;;;5.60;4.07;;;17.80;42.10;;;;;;5093382;28;20386;-53
2021/01/17 06:20:10;;;;;;;6.43;3.95;;;17.80;42.20;;;;;;5093196;28;20012;-53
2021/01/17 06:22:37;;;;;;;6.43;4.32;;;17.80;42.20;;;;;;5094695;28;20104;-53
2021/01/17 06:25:05;;;;;;;10.52;4.65;;;17.70;42.20;;;;;;5094356;28;20023;-54
2021/01/17 06:27:32;;;;;;;7.43;4.32;;;17.70;42.80;;;;;;5094450;28;20028;-53
2021/01/17 06:29:58;;;;;;;7.07;3.92;;;17.70;42.20;;;;;;5093845;28;20028;-53
2021/01/17 06:32:30;;;;;;;6.88;4.20;;;17.70;42.20;;;;;;5094160;28;20057;-53
2021/01/17 06:34:57;;;;;;;5.63;4.75;;;17.70;42.80;;;;;;5093985;28;20020;-53
2021/01/17 06:37:30;;;;;;;6.32;4.22;;;17.70;42.10;;;;;;5094028;28;20030;-53
2021/01/17 06:39:58;;;;;;;7.00;4.70;;;17.70;42.10;;;;;;5093663;28;20024;-53
2021/01/17 06:42:25;;;;;;;5.93;3.95;;;17.70;42.10;;;;;;5093883;28;20024;-53
2021/01/17 06:44:52;;;;;;;6.50;4.55;;;17.70;42.20;;;;;;5092243;28;20035;-53
2021/01/17 06:47:23;;;;;;;5.45;4.50;;;17.60;42.10;;;;;;5093719;28;20024;-55
2021/01/17 06:49:52;;;;;;;6.68;4.88;;;17.60;42.20;;;;;;5091916;28;20497;-54
2021/01/17 06:52:19;;;;;;;6.85;4.90;;;17.60;42.10;;;;;;5093417;28;20035;-55
2021/01/17 06:54:52;;;;;;;6.93;4.55;;;17.60;42.10;;;;;;5092112;28;20031;-53
2021/01/17 06:57:19;;;;;;;5.45;4.55;;;17.60;42.10;;;;;;5093291;28;20422;-58
2021/01/17 06:59:47;;;;;;;7.95;4.55;;;17.60;42.10;;;;;;5093823;28;20157;-57
2021/01/17 07:02:16;;;;;;;5.32;4.45;;;17.60;42.10;;;;;;5093894;28;20039;-59
2021/01/17 07:04:59;;;;;;;6.65;4.10;;;17.60;42.10;;;;;;5069323;28;20359;-58
2021/01/17 07:08:12;;;;;;;6.53;4.80;;;17.50;42.10;;;;;;5090861;28;20054;-58
2021/01/17 07:10:42;;;;;;;7.13;4.65;;;17.60;42.20;;;;;;5077899;28;20115;-58
2021/01/17 07:13:10;;;;;;;5.47;4.40;;;17.50;42.10;;;;;;5093538;28;20037;-57
2021/01/17 07:15:37;;;;;;;5.82;4.22;;;17.60;42.20;;;;;;5092748;28;20039;-59
2021/01/17 07:18:12;;;;;;;5.68;4.30;;;17.60;42.20;;;;;;5091817;28;20038;-57
2021/01/17 07:20:46;;;;;;;6.20;4.40;;;17.50;42.20;;;;;;5093073;28;20024;-57
2021/01/17 07:23:17;;;;;;;5.78;4.43;;;17.60;42.30;;;;;;5092015;28;20032;-58
2021/01/17 07:25:46;;;;;;;5.95;4.30;;;17.50;42.30;;;;;;5092584;28;20058;-58
2021/01/17 07:28:19;;;;;;;5.38;4.47;;;17.50;42.30;;;;;;5092134;28;20083;-58
2021/01/17 07:30:49;;;;;;;5.60;4.18;;;17.50;42.30;;;;;;5093438;28;20081;-58
2021/01/17 07:33:22;;;;;;;5.60;4.10;;;17.50;42.30;;;;;;5092939;28;20074;-57
2021/01/17 07:35:48;;;;;;;6.00;4.50;;;17.50;42.20;;;;;;5085918;28;20020;-59
2021/01/17 07:38:20;;;;;;;5.90;4.68;;;17.40;42.20;;;;;;5093276;28;20036;-58
2021/01/17 07:40:56;;;;;;;5.55;4.03;;;17.40;42.20;;;;;;5091959;28;20028;-54
2021/01/17 07:43:34;;;;;;;8.77;5.03;;;17.40;42.20;;;;;;5092989;28;20024;-58
2021/01/17 07:46:02;;;;;;;9.43;5.03;;;17.40;42.20;;;;;;5093044;28;20051;-57
2021/01/17 07:48:29;;;;;;;6.50;4.95;;;17.40;42.20;;;;;;5093020;28;20028;-59
2021/01/17 07:50:57;;;;;;;5.68;4.47;;;17.40;42.20;;;;;;5093016;28;20097;-58
2021/01/17 07:53:38;;;;;;;6.22;4.82;;;17.40;42.20;;;;;;5093160;28;20063;-58
2021/01/17 07:56:27;;;;;;;6.82;5.18;;;17.40;42.20;;;;;;5091620;28;20126;-58
2021/01/17 07:59:07;;;;;;;9.23;5.72;;;17.40;42.10;;;;;;5092894;28;20036;-54
2021/01/17 08:01:34;;;;;;;6.30;4.78;;;17.40;42.10;;;;;;5072745;28;20027;-54
2021/01/17 08:04:05;;;;;;;9.18;5.05;;;17.40;42.10;;;;;;5072693;28;20032;-54
2021/01/17 08:06:34;;;;;;;9.70;5.22;;;17.40;42.10;;;;;;5092102;28;20086;-54
2021/01/17 08:09:14;;;;;;;7.60;5.43;;;17.40;42.10;;;;;;5092568;28;20021;-53
2021/01/17 08:11:49;;;;;;;10.02;6.15;;;17.30;42.10;;;;;;5091610;28;20436;-54
2021/01/17 08:14:32;;;;;;;12.50;9.52;;;17.40;42.20;;;;;;5090798;28;20085;-49
2021/01/17 08:17:08;;;;;;;14.55;11.15;;;17.30;42.30;;;;;;5083712;28;20549;-50
2021/01/17 08:19:36;;;;;;;14.00;11.88;;;17.30;42.20;;;;;;5073970;28;20032;-49
2021/01/17 08:22:22;;;;;;;14.45;10.95;;;17.40;42.30;;;;;;5092617;28;20028;-48
2021/01/17 08:25:07;;;;;;;14.23;11.63;;;17.30;42.20;;;;;;5084741;28;20091;-49
2021/01/17 08:27:38;;;;;;;18.90;11.35;;;17.30;42.20;;;;;;5081872;28;20346;-50
2021/01/17 08:30:06;;;;;;;16.15;11.05;;;17.30;42.10;;;;;;5090975;28;20032;-54
2021/01/17 08:32:38;;;;;;;14.85;11.25;;;17.30;42.20;;;;;;5090241;28;20048;-54
2021/01/17 08:35:19;;;;;;;12.07;10.68;;;17.30;42.10;;;;;;5092483;28;20047;-55
2021/01/17 08:37:45;;;;;;;;;;;17.30;42.10;;;;;;5093618;28;20671;-49
2021/01/17 08:40:16;;;;;;;16.45;11.90;;;17.30;42.10;;;;;;5096054;28;20423;-49
2021/01/17 08:42:53;;;;;;;17.42;12.35;;;17.40;41.90;;;;;;5095883;28;20051;-54
2021/01/17 08:45:22;;;;;;;13.13;11.48;;;17.40;41.90;;;;;;5095839;28;20016;-57
2021/01/17 08:48:17;;;;;;;20.40;16.83;;;17.40;42.00;;;;;;5095505;28;20494;-57
2021/01/17 08:50:44;;;;;;;25.88;21.27;;;17.40;42.50;;;;;;5095583;28;20450;-57
2021/01/17 08:53:21;;;;;;;27.65;22.40;;;17.40;42.30;;;;;;5096249;28;20162;-57
2021/01/17 08:55:48;;;;;;;25.58;21.38;;;17.40;42.40;;;;;;5095047;28;20500;-58
2021/01/17 08:58:26;;;;;;;27.27;21.73;;;17.40;42.40;;;;;;5095019;28;20020;-57
2021/01/17 09:00:52;;;;;;;27.45;21.25;;;17.40;42.50;;;;;;5094772;28;20137;-53
2021/01/17 09:03:27;;;;;;;29.85;22.38;;;17.50;42.80;;;;;;5095852;28;20474;-57
2021/01/17 09:05:54;;;;;;;22.35;19.50;;;17.50;43.20;;;;;;5076147;28;20059;-55
2021/01/17 09:08:21;;;;;;;21.15;17.52;;;17.60;43.20;;;;;;5093630;28;20019;-57
2021/01/17 09:10:47;;;;;;;21.85;16.42;;;17.60;43.40;;;;;;5095543;28;20035;-54
2021/01/17 09:13:27;;;;;;;18.20;14.77;;;17.70;43.40;;;;;;5093819;28;20078;-55
2021/01/17 09:16:06;;;;;;;20.98;15.35;;;17.70;43.60;;;;;;5095536;28;20058;-54
2021/01/17 09:18:36;;;;;;;15.00;12.77;;;17.80;43.60;;;;;;5095191;28;20389;-54
2021/01/17 09:21:03;;;;;;;13.93;10.50;;;17.80;43.40;;;;;;5095195;28;20052;-53
2021/01/17 09:23:29;;;;;;;15.40;9.80;;;17.90;43.30;;;;;;5094135;28;20530;-53
2021/01/17 09:25:59;;;;;;;20.38;17.15;;;17.90;43.20;;;;;;5093376;28;20020;-55
2021/01/17 09:28:29;;;;;;;23.27;17.35;;;17.90;43.10;;;;;;5094698;28;20032;-54
2021/01/17 09:30:57;;;;;;;34.73;27.03;;;18.00;43.20;;;;;;5095534;28;20067;-54
2021/01/17 09:33:24;;;;;;;30.15;25.27;;;18.00;43.20;;;;;;5092939;28;20064;-53
2021/01/17 09:35:51;;;;;;;36.08;26.77;;;18.10;43.30;;;;;;5095228;28;20437;-56
2021/01/17 09:38:19;;;;;;;34.83;25.35;;;18.20;43.40;;;;;;5094965;28;20024;-53
2021/01/17 09:40:50;;;;;;;33.92;24.48;;;18.20;43.40;;;;;;5092768;28;20028;-58
2021/01/17 09:43:16;;;;;;;32.47;23.25;;;18.30;43.60;;;;;;5095095;28;20086;-57
2021/01/17 09:45:49;;;;;;;33.33;21.52;;;18.30;43.70;;;;;;5094910;28;20044;-58
2021/01/17 09:48:22;;;;;;;25.05;20.83;;;18.40;43.90;;;;;;5094031;28;20038;-58
2021/01/17 09:50:50;;;;;;;24.25;21.08;;;18.40;43.90;;;;;;5094042;28;20043;-57
2021/01/17 09:53:17;;;;;;;24.60;19.38;;;18.50;43.80;;;;;;5091373;28;20029;-57
2021/01/17 09:55:44;;;;;;;23.50;18.08;;;18.50;43.80;;;;;;5093659;28;20050;-53
2021/01/17 09:58:13;;;;;;;20.67;18.48;;;18.60;43.80;;;;;;5094305;28;20021;-52
2021/01/17 10:00:41;;;;;;;25.33;19.58;;;18.60;43.90;;;;;;5093227;28;20068;-52
2021/01/17 10:03:08;;;;;;;21.52;16.17;;;18.70;44.00;;;;;;5093521;28;20020;-52
2021/01/17 10:05:36;;;;;;;20.25;15.18;;;18.70;43.70;;;;;;5094326;28;20030;-52
2021/01/17 10:08:03;;;;;;;29.83;16.25;;;18.80;43.60;;;;;;5094380;28;20032;-51
2021/01/17 10:10:30;;;;;;;17.40;14.18;;;18.80;43.50;;;;;;5093370;28;20032;-52
2021/01/17 10:12:56;;;;;;;19.85;15.55;;;18.90;43.20;;;;;;5094017;28;20035;-50
2021/01/17 10:15:24;;;;;;;19.08;16.38;;;18.90;43.20;;;;;;5094375;28;20474;-52
2021/01/17 10:17:50;;;;;;;18.98;15.48;;;19.00;43.40;;;;;;5093835;28;20036;-56
2021/01/17 10:20:26;;;;;;;22.60;14.73;;;19.00;43.40;;;;;;5094116;28;20066;-53
2021/01/17 10:23:03;;;;;;;19.30;12.80;;;19.00;43.20;;;;;;5094125;28;20020;-54
2021/01/17 10:25:31;;;;;;;14.30;12.57;;;19.10;43.30;;;;;;5093118;28;20039;-50
2021/01/17 10:28:01;;;;;;;16.23;12.50;;;19.10;43.20;;;;;;5092600;28;20016;-52
2021/01/17 10:30:28;;;;;;;16.70;12.82;;;19.20;43.10;;;;;;5086389;28;20032;-52
2021/01/17 10:33:04;;;;;;;15.13;12.73;;;19.30;43.10;;;;;;5092710;28;20051;-51
2021/01/17 10:35:31;;;;;;;13.93;12.43;;;19.30;43.00;;;;;;5093599;28;20032;-51
2021/01/17 10:37:58;;;;;;;13.50;11.93;;;19.40;42.90;;;;;;5091171;28;20032;-49
2021/01/17 10:40:28;;;;;;;18.73;13.45;;;19.40;42.80;;;;;;5091788;28;20032;-52
2021/01/17 10:42:58;;;;;;;18.10;16.13;;;19.50;42.60;;;;;;5091702;28;20028;-52
2021/01/17 10:45:28;;;;;;;22.98;15.98;;;19.60;42.60;;;;;;5091806;28;20470;-49
2021/01/17 10:48:14;;;;;;;18.83;16.55;;;19.70;42.50;;;;;;5092379;28;20391;-49
2021/01/17 10:51:03;;;;;;;21.35;16.10;;;19.80;42.40;;;;;;5092651;28;20153;-49
2021/01/17 10:53:32;;;;;;;22.55;17.17;;;19.90;42.30;;;;;;5073392;28;20409;-50
2021/01/17 10:55:59;;;;;;;22.88;16.90;;;20.00;42.20;;;;;;5073719;28;20060;-50
2021/01/17 10:58:29;;;;;;;26.17;21.33;;;20.10;42.20;;;;;;5073317;28;20032;-49
2021/01/17 11:01:00;;;;;;;37.30;25.52;;;20.20;42.20;;;;;;5072725;28;20073;-51
2021/01/17 11:03:34;;;;;;;25.27;20.08;;;20.30;42.20;;;;;;5073393;28;20694;-49
2021/01/17 11:06:16;;;;;;;38.28;29.15;;;20.50;42.10;;;;;;5073557;28;20024;-48
2021/01/17 11:08:56;;;;;;;36.92;30.45;;;20.60;42.10;;;;;;5073588;28;20028;-49
2021/01/17 11:11:29;;;;;;;34.33;28.73;;;20.70;42.10;;;;;;5073347;28;20024;-49
2021/01/17 11:13:59;;;;;;;39.53;32.63;;;20.90;42.00;;;;;;5071995;28;20069;-49
2021/01/17 11:16:39;;;;;;;40.58;34.70;;;21.00;42.00;;;;;;5072035;28;20056;-50
2021/01/17 11:19:12;;;;;;;35.50;31.63;;;21.20;41.90;;;;;;5073539;28;20049;-49
2021/01/17 11:21:39;;;;;;;36.45;32.55;;;21.30;41.80;;;;;;5073330;28;20028;-50
2021/01/17 11:24:07;;;;;;;36.70;29.98;;;21.50;41.70;;;;;;5085594;28;20026;-49
2021/01/17 11:26:33;;;;;;;32.70;28.75;;;21.70;41.60;;;;;;5092573;28;20031;-49
2021/01/17 11:29:01;;;;;;;34.58;30.88;;;21.80;41.50;;;;;;5093332;28;20056;-49
2021/01/17 11:31:28;;;;;;;36.70;30.02;;;22.00;41.20;;;;;;5092764;28;20073;-50
2021/01/17 11:33:54;;;;;;;34.65;30.42;;;22.20;41.00;;;;;;5087580;28;20066;-50
2021/01/17 11:36:24;;;;;;;32.75;29.33;;;22.30;40.70;;;;;;5093262;28;20073;-50
2021/01/17 11:38:56;;;;;;;32.17;28.15;;;22.50;40.40;;;;;;5092884;28;20040;-49
2021/01/17 11:41:39;;;;;;;32.17;28.70;;;22.70;40.10;;;;;;5093333;28;20496;-49
2021/01/17 11:44:09;;;;;;;29.20;26.10;;;22.90;39.90;;;;;;5081832;28;20036;-51
2021/01/17 11:46:36;;;;;;;28.77;25.70;;;23.10;39.60;;;;;;5093113;28;20032;-53
2021/01/17 11:49:03;;;;;;;29.90;26.58;;;23.20;39.50;;;;;;5091720;28;20016;-51
2021/01/17 11:51:30;;;;;;;28.90;24.88;;;23.40;39.40;;;;;;5091635;28;20028;-50
2021/01/17 11:54:17;;;;;;;22.98;20.60;;;23.50;39.10;;;;;;5108105;28;20020;-50
2021/01/17 11:56:43;;;;;;;22.63;18.80;;;23.70;38.80;;;;;;5119030;28;20547;-49
2021/01/17 11:59:09;;;;;;;31.33;25.35;;;23.80;38.40;;;;;;5072369;28;20220;-51
2021/01/17 12:01:35;;;;;;;31.10;27.35;;;23.90;38.20;;;;;;5092486;28;20059;-54
2021/01/17 12:04:03;;;;;;;30.30;26.00;;;24.10;38.10;;;;;;5071084;28;20035;-54
2021/01/17 12:06:30;;;;;;;44.55;37.28;;;24.20;37.80;;;;;;5075099;28;20425;-54
2021/01/17 12:09:07;;;;;;;45.85;35.13;;;24.30;37.80;;;;;;5092133;28;20024;-52
2021/01/17 12:11:45;;;;;;;37.22;30.15;;;24.40;37.50;;;;;;5092494;28;20035;-56
2021/01/17 12:14:27;;;;;;;39.28;29.90;;;24.50;37.30;;;;;;5094293;28;20040;-56
2021/01/17 12:16:55;;;;;;;40.22;27.95;;;24.70;37.30;;;;;;5094006;28;20028;-57
2021/01/17 12:19:22;;;;;;;37.40;27.25;;;24.70;37.20;;;;;;5092862;28;20024;-60
2021/01/17 12:21:51;;;;;;;28.95;25.00;;;24.90;37.20;;;;;;5095622;28;20060;-60
2021/01/17 12:24:17;;;;;;;36.70;26.45;;;24.90;37.00;;;;;;5095908;28;20740;-61
2021/01/17 12:26:45;;;;;;;39.38;26.48;;;25.00;36.80;;;;;;5095335;28;20470;-55
2021/01/17 12:29:12;;;;;;;42.92;25.30;;;25.10;36.80;;;;;;5095812;28;20024;-59
2021/01/17 12:31:39;;;;;;;32.50;24.30;;;25.20;36.80;;;;;;5095845;28;20028;-59
2021/01/17 12:34:06;;;;;;;31.55;25.23;;;25.30;36.90;;;;;;5095726;28;20075;-61
2021/01/17 12:36:33;;;;;;;30.80;22.75;;;25.30;36.70;;;;;;5095172;28;20024;-55
2021/01/17 12:39:02;;;;;;;31.13;23.10;;;25.40;36.50;;;;;;5094458;28;20937;-56
2021/01/17 12:41:30;;;;;;;21.75;17.95;;;25.40;36.30;;;;;;5093829;28;20427;-55
2021/01/17 12:43:57;;;;;;;34.10;21.33;;;25.50;36.10;;;;;;5095545;28;20016;-56
2021/01/17 12:46:24;;;;;;;24.98;21.55;;;25.50;36.10;;;;;;5094815;28;20024;-55
2021/01/17 12:48:50;;;;;;;31.15;21.85;;;25.60;36.10;;;;;;5095543;28;20032;-56
2021/01/17 12:51:16;;;;;;;20.83;17.35;;;25.60;36.10;;;;;;5095016;28;20516;-56
2021/01/17 12:53:44;;;;;;;30.83;19.85;;;25.60;36.00;;;;;;5095170;28;20028;-57